Pendleton, New York
Current Conditions -  °F | °C
As of 2:08 AM on Friday 19 Dec 2014 (Local Time) from KIAG Reporting Station
Light Snow Light Snow  
Wind Chill: 16°   Ceiling: 1300
Heat Index: 26°   Visibility: 6mi
Dew Point: 22°   Wind: 12mph
Humidity: 84%   Direction: 330°NNW
Pressure: 30.1"   Gusts: NA
Location:  43.0772°N, 78.8339°W
Report Text: KIAG 190708Z AUTO 33010KT 6SM -SN BR OVC013 M03/M06 A3010 RMK AO2 P0000 T10331056
Loading
Personal Weather Stations






























Interactive Weather Map New forecast layout! Learn more

10-Day Weather Forecast

Advertisements
Track Severe Weather on mobile